sensor_id;sensor_type;location;lat;lon;timestamp;pressure;altitude;pressure_sealevel;temperature;humidity
28448;BME280;15675;52.870;-1.416;2023-06-14T00:00:20;101339.78;;;17.11;55.91
28448;BME280;15675;52.870;-1.416;2023-06-14T00:02:46;101343.94;;;17.25;55.35
28448;BME280;15675;52.870;-1.416;2023-06-14T00:05:12;101340.66;;;17.11;56.00
28448;BME280;15675;52.870;-1.416;2023-06-14T00:07:39;101343.56;;;16.89;56.48
28448;BME280;15675;52.870;-1.416;2023-06-14T00:10:08;101349.69;;;16.88;57.14
28448;BME280;15675;52.870;-1.416;2023-06-14T00:12:34;101345.50;;;16.72;57.79
28448;BME280;15675;52.870;-1.416;2023-06-14T00:15:00;101341.81;;;16.87;57.28
28448;BME280;15675;52.870;-1.416;2023-06-14T00:17:28;101343.13;;;17.22;56.60
28448;BME280;15675;52.870;-1.416;2023-06-14T00:19:57;101343.63;;;17.49;55.44
28448;BME280;15675;52.870;-1.416;2023-06-14T00:22:23;101344.03;;;17.79;55.12
28448;BME280;15675;52.870;-1.416;2023-06-14T00:24:50;101339.94;;;17.60;55.11
28448;BME280;15675;52.870;-1.416;2023-06-14T00:27:16;101331.25;;;17.55;54.84
28448;BME280;15675;52.870;-1.416;2023-06-14T00:29:42;101335.25;;;17.22;55.03
28448;BME280;15675;52.870;-1.416;2023-06-14T00:32:07;101340.81;;;17.00;55.94
28448;BME280;15675;52.870;-1.416;2023-06-14T00:34:33;101344.50;;;16.81;56.82
28448;BME280;15675;52.870;-1.416;2023-06-14T00:36:59;101340.16;;;16.80;57.65
28448;BME280;15675;52.870;-1.416;2023-06-14T00:39:25;101343.28;;;16.36;58.92
28448;BME280;15675;52.870;-1.416;2023-06-14T00:41:50;101348.91;;;15.96;61.09
28448;BME280;15675;52.870;-1.416;2023-06-14T00:44:16;101348.25;;;15.62;63.43
28448;BME280;15675;52.870;-1.416;2023-06-14T00:46:42;101351.84;;;15.48;65.37
28448;BME280;15675;52.870;-1.416;2023-06-14T00:49:09;101350.81;;;15.71;66.15
28448;BME280;15675;52.870;-1.416;2023-06-14T00:51:36;101353.41;;;15.71;66.41
28448;BME280;15675;52.870;-1.416;2023-06-14T00:54:03;101356.13;;;15.57;67.27
28448;BME280;15675;52.870;-1.416;2023-06-14T00:56:28;101343.25;;;15.23;68.49
28448;BME280;15675;52.870;-1.416;2023-06-14T00:58:56;101345.84;;;15.31;69.55
28448;BME280;15675;52.870;-1.416;2023-06-14T01:01:21;101341.44;;;15.34;69.01
28448;BME280;15675;52.870;-1.416;2023-06-14T01:03:47;101337.00;;;15.47;69.82
28448;BME280;15675;52.870;-1.416;2023-06-14T01:14:22;101340.81;;;16.97;62.93
28448;BME280;15675;52.870;-1.416;2023-06-14T01:16:49;101334.69;;;17.00;61.45
28448;BME280;15675;52.870;-1.416;2023-06-14T01:19:18;101335.63;;;16.94;60.35
28448;BME280;15675;52.870;-1.416;2023-06-14T01:21:48;101334.13;;;16.71;59.91
28448;BME280;15675;52.870;-1.416;2023-06-14T01:24:16;101332.31;;;16.77;60.19
28448;BME280;15675;52.870;-1.416;2023-06-14T01:26:45;101334.09;;;16.73;60.83
28448;BME280;15675;52.870;-1.416;2023-06-14T01:29:13;101331.38;;;16.82;61.00
28448;BME280;15675;52.870;-1.416;2023-06-14T01:31:42;101332.22;;;16.84;60.93
28448;BME280;15675;52.870;-1.416;2023-06-14T01:34:09;101327.13;;;16.73;60.78
28448;BME280;15675;52.870;-1.416;2023-06-14T01:36:36;101326.22;;;16.76;60.61
28448;BME280;15675;52.870;-1.416;2023-06-14T01:39:03;101320.25;;;16.65;60.48
28448;BME280;15675;52.870;-1.416;2023-06-14T01:41:31;101319.44;;;16.58;60.16
28448;BME280;15675;52.870;-1.416;2023-06-14T01:43:57;101329.22;;;16.42;60.72
28448;BME280;15675;52.870;-1.416;2023-06-14T01:46:24;101326.75;;;16.28;61.23
28448;BME280;15675;52.870;-1.416;2023-06-14T01:48:50;101320.84;;;16.11;62.12
28448;BME280;15675;52.870;-1.416;2023-06-14T01:51:15;101310.25;;;16.18;63.45
28448;BME280;15675;52.870;-1.416;2023-06-14T01:53:41;101313.63;;;16.30;63.76
28448;BME280;15675;52.870;-1.416;2023-06-14T01:56:07;101320.09;;;15.98;65.26
28448;BME280;15675;52.870;-1.416;2023-06-14T01:58:32;101323.00;;;15.54;67.69
28448;BME280;15675;52.870;-1.416;2023-06-14T02:00:58;101326.53;;;15.47;69.03
28448;BME280;15675;52.870;-1.416;2023-06-14T02:03:26;101331.19;;;14.99;70.50
28448;BME280;15675;52.870;-1.416;2023-06-14T02:05:52;101329.56;;;14.70;73.14
28448;BME280;15675;52.870;-1.416;2023-06-14T02:08:17;101325.19;;;14.77;74.48
28448;BME280;15675;52.870;-1.416;2023-06-14T02:10:43;101330.47;;;14.55;75.45
28448;BME280;15675;52.870;-1.416;2023-06-14T02:13:09;101321.78;;;14.62;76.15
28448;BME280;15675;52.870;-1.416;2023-06-14T02:15:34;101326.13;;;14.53;76.40
28448;BME280;15675;52.870;-1.416;2023-06-14T02:18:01;101328.69;;;14.60;76.96
28448;BME280;15675;52.870;-1.416;2023-06-14T02:20:28;101328.72;;;14.66;77.04
28448;BME280;15675;52.870;-1.416;2023-06-14T02:22:54;101322.59;;;14.69;77.91
28448;BME280;15675;52.870;-1.416;2023-06-14T02:25:20;101330.34;;;14.94;77.16
28448;BME280;15675;52.870;-1.416;2023-06-14T02:27:45;101332.06;;;14.95;75.82
28448;BME280;15675;52.870;-1.416;2023-06-14T02:30:11;101322.44;;;15.06;75.37
28448;BME280;15675;52.870;-1.416;2023-06-14T02:32:37;101322.59;;;14.75;75.73
28448;BME280;15675;52.870;-1.416;2023-06-14T02:35:04;101323.47;;;14.71;76.48
28448;BME280;15675;52.870;-1.416;2023-06-14T02:37:29;101319.09;;;14.73;77.09
28448;BME280;15675;52.870;-1.416;2023-06-14T02:39:56;101320.00;;;14.60;77.01
28448;BME280;15675;52.870;-1.416;2023-06-14T02:42:21;101314.84;;;14.41;77.77
28448;BME280;15675;52.870;-1.416;2023-06-14T02:44:47;101318.34;;;14.23;79.46
28448;BME280;15675;52.870;-1.416;2023-06-14T02:47:19;101324.44;;;14.19;79.46
28448;BME280;15675;52.870;-1.416;2023-06-14T02:49:45;101327.91;;;14.38;79.08
28448;BME280;15675;52.870;-1.416;2023-06-14T02:52:12;101327.94;;;14.20;78.72
28448;BME280;15675;52.870;-1.416;2023-06-14T02:54:37;101325.34;;;13.93;78.81
28448;BME280;15675;52.870;-1.416;2023-06-14T02:57:03;101318.41;;;13.75;81.24
28448;BME280;15675;52.870;-1.416;2023-06-14T02:59:29;101327.97;;;13.64;82.97
28448;BME280;15675;52.870;-1.416;2023-06-14T03:01:55;101330.56;;;13.61;84.61
28448;BME280;15675;52.870;-1.416;2023-06-14T03:04:20;101330.59;;;13.86;84.86
28448;BME280;15675;52.870;-1.416;2023-06-14T03:06:46;101331.44;;;13.63;85.69
28448;BME280;15675;52.870;-1.416;2023-06-14T03:09:15;101327.09;;;13.80;85.33
28448;BME280;15675;52.870;-1.416;2023-06-14T03:11:41;101328.84;;;13.85;85.05
28448;BME280;15675;52.870;-1.416;2023-06-14T03:14:06;101325.34;;;13.96;85.18
28448;BME280;15675;52.870;-1.416;2023-06-14T03:16:33;101319.19;;;14.39;83.48
28448;BME280;15675;52.870;-1.416;2023-06-14T03:18:59;101313.19;;;14.02;83.15
28448;BME280;15675;52.870;-1.416;2023-06-14T03:21:25;101326.19;;;14.19;83.06
28448;BME280;15675;52.870;-1.416;2023-06-14T03:23:51;101315.75;;;14.22;81.99
28448;BME280;15675;52.870;-1.416;2023-06-14T03:26:18;101315.78;;;13.97;82.43
28448;BME280;15675;52.870;-1.416;2023-06-14T03:28:45;101317.53;;;14.06;83.02
28448;BME280;15675;52.870;-1.416;2023-06-14T03:31:12;101311.44;;;13.96;82.75
28448;BME280;15675;52.870;-1.416;2023-06-14T03:33:38;101308.81;;;13.99;82.91
28448;BME280;15675;52.870;-1.416;2023-06-14T03:36:05;101307.09;;;13.86;83.09
28448;BME280;15675;52.870;-1.416;2023-06-14T03:38:30;101307.09;;;13.67;83.38
28448;BME280;15675;52.870;-1.416;2023-06-14T03:40:56;101304.50;;;13.49;84.39
28448;BME280;15675;52.870;-1.416;2023-06-14T03:43:21;101307.97;;;13.37;84.40
28448;BME280;15675;52.870;-1.416;2023-06-14T03:45:47;101306.16;;;13.19;86.92
28448;BME280;15675;52.870;-1.416;2023-06-14T03:48:13;101308.81;;;13.37;87.01
28448;BME280;15675;52.870;-1.416;2023-06-14T03:50:38;101311.44;;;13.36;87.16
28448;BME280;15675;52.870;-1.416;2023-06-14T03:53:04;101317.44;;;13.18;88.83
28448;BME280;15675;52.870;-1.416;2023-06-14T03:55:30;101320.03;;;13.19;90.84
28448;BME280;15675;52.870;-1.416;2023-06-14T03:57:59;101315.69;;;13.15;92.90
28448;BME280;15675;52.870;-1.416;2023-06-14T04:00:25;101317.44;;;13.15;94.39
28448;BME280;15675;52.870;-1.416;2023-06-14T04:02:51;101316.59;;;13.31;94.75
28448;BME280;15675;52.870;-1.416;2023-06-14T04:05:17;101316.66;;;13.51;94.78
28448;BME280;15675;52.870;-1.416;2023-06-14T04:07:45;101311.44;;;13.84;93.45
28448;BME280;15675;52.870;-1.416;2023-06-14T04:10:15;101307.09;;;13.98;92.09
28448;BME280;15675;52.870;-1.416;2023-06-14T04:12:41;101325.31;;;14.23;90.87
28448;BME280;15675;52.870;-1.416;2023-06-14T04:15:07;101313.94;;;14.59;88.38
28448;BME280;15675;52.870;-1.416;2023-06-14T04:17:34;101315.72;;;14.37;86.82
28448;BME280;15675;52.870;-1.416;2023-06-14T04:20:00;101324.38;;;14.50;87.51
28448;BME280;15675;52.870;-1.416;2023-06-14T04:22:26;101318.31;;;14.49;86.71
28448;BME280;15675;52.870;-1.416;2023-06-14T04:24:56;101315.63;;;14.60;86.09
28448;BME280;15675;52.870;-1.416;2023-06-14T04:27:26;101319.13;;;14.70;85.63
28448;BME280;15675;52.870;-1.416;2023-06-14T04:29:53;101327.75;;;14.88;83.91
28448;BME280;15675;52.870;-1.416;2023-06-14T04:32:25;101324.31;;;14.82;83.95
28448;BME280;15675;52.870;-1.416;2023-06-14T04:34:58;101323.38;;;14.96;83.59
28448;BME280;15675;52.870;-1.416;2023-06-14T04:37:24;101326.75;;;15.16;82.26
28448;BME280;15675;52.870;-1.416;2023-06-14T04:39:54;101323.97;;;15.43;81.55
28448;BME280;15675;52.870;-1.416;2023-06-14T04:42:23;101324.81;;;15.48;80.36
28448;BME280;15675;52.870;-1.416;2023-06-14T04:44:51;101329.00;;;15.72;79.34
28448;BME280;15675;52.870;-1.416;2023-06-14T04:47:20;101340.25;;;15.85;79.27
28448;BME280;15675;52.870;-1.416;2023-06-14T04:49:46;101336.44;;;16.20;78.08
28448;BME280;15675;52.870;-1.416;2023-06-14T04:52:13;101329.53;;;16.94;75.54
28448;BME280;15675;52.870;-1.416;2023-06-14T04:54:39;101333.13;;;17.47;72.05
28448;BME280;15675;52.870;-1.416;2023-06-14T04:57:07;101330.72;;;17.91;69.79
28448;BME280;15675;52.870;-1.416;2023-06-14T04:59:33;101325.63;;;17.80;69.19
28448;BME280;15675;52.870;-1.416;2023-06-14T05:02:01;101320.41;;;17.77;68.51
28448;BME280;15675;52.870;-1.416;2023-06-14T05:04:26;101323.53;;;17.46;68.20
28448;BME280;15675;52.870;-1.416;2023-06-14T05:06:53;101316.69;;;17.92;68.08
28448;BME280;15675;52.870;-1.416;2023-06-14T05:09:20;101315.88;;;16.64;69.92
28448;BME280;15675;52.870;-1.416;2023-06-14T05:11:46;101318.28;;;16.81;72.99
28448;BME280;15675;52.870;-1.416;2023-06-14T05:14:13;101325.88;;;17.05;73.66
28448;BME280;15675;52.870;-1.416;2023-06-14T05:16:39;101329.16;;;17.20;74.06
28448;BME280;15675;52.870;-1.416;2023-06-14T05:19:06;101326.25;;;17.40;74.11
28448;BME280;15675;52.870;-1.416;2023-06-14T05:21:31;101331.47;;;17.43;73.31
28448;BME280;15675;52.870;-1.416;2023-06-14T05:23:59;101328.28;;;17.79;73.75
28448;BME280;15675;52.870;-1.416;2023-06-14T05:26:24;101328.00;;;17.96;72.80
28448;BME280;15675;52.870;-1.416;2023-06-14T05:28:57;101329.00;;;17.87;73.46
28448;BME280;15675;52.870;-1.416;2023-06-14T05:31:23;101330.72;;;17.88;73.55
28448;BME280;15675;52.870;-1.416;2023-06-14T05:33:50;101332.13;;;17.56;75.81
28448;BME280;15675;52.870;-1.416;2023-06-14T05:36:16;101333.59;;;17.74;77.29
28448;BME280;15675;52.870;-1.416;2023-06-14T05:38:41;101333.19;;;17.44;76.83
28448;BME280;15675;52.870;-1.416;2023-06-14T05:41:06;101332.16;;;17.53;79.18
28448;BME280;15675;52.870;-1.416;2023-06-14T05:43:32;101330.47;;;17.50;77.77
28448;BME280;15675;52.870;-1.416;2023-06-14T05:45:57;101333.97;;;17.49;78.72
28448;BME280;15675;52.870;-1.416;2023-06-14T05:48:23;101330.56;;;17.42;79.61
28448;BME280;15675;52.870;-1.416;2023-06-14T05:50:48;101326.25;;;16.74;81.70
28448;BME280;15675;52.870;-1.416;2023-06-14T05:53:14;101330.78;;;16.59;86.80
28448;BME280;15675;52.870;-1.416;2023-06-14T05:55:39;101331.50;;;16.71;86.82
28448;BME280;15675;52.870;-1.416;2023-06-14T05:58:05;101329.50;;;16.14;88.03
28448;BME280;15675;52.870;-1.416;2023-06-14T06:00:31;101329.22;;;16.42;90.09
28448;BME280;15675;52.870;-1.416;2023-06-14T06:02:56;101328.44;;;16.34;88.78
28448;BME280;15675;52.870;-1.416;2023-06-14T06:05:26;101329.88;;;16.61;89.81
28448;BME280;15675;52.870;-1.416;2023-06-14T06:07:52;101333.94;;;16.90;89.68
28448;BME280;15675;52.870;-1.416;2023-06-14T06:10:17;101336.28;;;17.12;89.75
28448;BME280;15675;52.870;-1.416;2023-06-14T06:12:43;101334.53;;;17.12;89.59
28448;BME280;15675;52.870;-1.416;2023-06-14T06:15:09;101343.50;;;16.93;87.46
28448;BME280;15675;52.870;-1.416;2023-06-14T06:17:37;101339.28;;;16.79;89.66
28448;BME280;15675;52.870;-1.416;2023-06-14T06:20:04;101336.09;;;17.24;89.81
28448;BME280;15675;52.870;-1.416;2023-06-14T06:22:31;101339.13;;;17.55;88.95
28448;BME280;15675;52.870;-1.416;2023-06-14T06:24:57;101340.16;;;17.45;88.38
28448;BME280;15675;52.870;-1.416;2023-06-14T06:27:22;101345.03;;;17.70;89.04
28448;BME280;15675;52.870;-1.416;2023-06-14T06:29:48;101343.34;;;17.66;88.51
28448;BME280;15675;52.870;-1.416;2023-06-14T06:32:15;101337.22;;;17.65;88.10
28448;BME280;15675;52.870;-1.416;2023-06-14T06:34:40;101339.44;;;17.90;90.43
28448;BME280;15675;52.870;-1.416;2023-06-14T06:37:06;101329.50;;;17.56;87.91
28448;BME280;15675;52.870;-1.416;2023-06-14T06:39:32;101351.28;;;17.61;90.42
28448;BME280;15675;52.870;-1.416;2023-06-14T06:41:58;101340.03;;;17.54;90.05
28448;BME280;15675;52.870;-1.416;2023-06-14T06:44:24;101347.81;;;17.60;90.00
28448;BME280;15675;52.870;-1.416;2023-06-14T06:46:49;101352.75;;;17.79;90.70
28448;BME280;15675;52.870;-1.416;2023-06-14T06:49:15;101346.56;;;17.83;92.12
28448;BME280;15675;52.870;-1.416;2023-06-14T06:51:41;101343.06;;;17.83;89.97
28448;BME280;15675;52.870;-1.416;2023-06-14T06:54:08;101347.25;;;17.98;88.73
28448;BME280;15675;52.870;-1.416;2023-06-14T06:56:35;101342.78;;;18.01;91.46
28448;BME280;15675;52.870;-1.416;2023-06-14T06:59:00;101351.28;;;18.17;91.09
28448;BME280;15675;52.870;-1.416;2023-06-14T07:01:26;101333.25;;;17.96;88.29
28448;BME280;15675;52.870;-1.416;2023-06-14T07:03:57;101345.19;;;18.14;87.40
28448;BME280;15675;52.870;-1.416;2023-06-14T07:06:22;101347.44;;;18.35;87.50
28448;BME280;15675;52.870;-1.416;2023-06-14T07:08:52;101344.94;;;18.74;86.19
28448;BME280;15675;52.870;-1.416;2023-06-14T07:11:18;101347.56;;;18.74;83.00
28448;BME280;15675;52.870;-1.416;2023-06-14T07:13:43;101349.69;;;18.54;81.79
28448;BME280;15675;52.870;-1.416;2023-06-14T07:16:08;101359.69;;;18.82;84.11
28448;BME280;15675;52.870;-1.416;2023-06-14T07:18:34;101356.53;;;18.64;81.92
28448;BME280;15675;52.870;-1.416;2023-06-14T07:21:01;101356.31;;;18.75;81.83
28448;BME280;15675;52.870;-1.416;2023-06-14T07:23:28;101358.44;;;19.01;81.35
28448;BME280;15675;52.870;-1.416;2023-06-14T07:25:53;101357.78;;;18.90;79.58
28448;BME280;15675;52.870;-1.416;2023-06-14T07:28:18;101361.06;;;19.01;80.13
28448;BME280;15675;52.870;-1.416;2023-06-14T07:30:44;101362.06;;;18.95;80.75
28448;BME280;15675;52.870;-1.416;2023-06-14T07:33:10;101364.28;;;18.70;80.59
28448;BME280;15675;52.870;-1.416;2023-06-14T07:35:37;101361.91;;;19.41;81.30
28448;BME280;15675;52.870;-1.416;2023-06-14T07:38:03;101366.22;;;19.06;79.14
28448;BME280;15675;52.870;-1.416;2023-06-14T07:40:28;101361.38;;;18.84;79.43
28448;BME280;15675;52.870;-1.416;2023-06-14T07:42:53;101377.31;;;18.76;79.81
28448;BME280;15675;52.870;-1.416;2023-06-14T07:45:20;101376.84;;;19.00;81.02
28448;BME280;15675;52.870;-1.416;2023-06-14T07:47:45;101366.31;;;19.01;81.91
28448;BME280;15675;52.870;-1.416;2023-06-14T07:50:11;101377.19;;;19.25;82.28
28448;BME280;15675;52.870;-1.416;2023-06-14T07:52:38;101373.72;;;19.24;80.54
28448;BME280;15675;52.870;-1.416;2023-06-14T07:55:03;101376.56;;;19.13;80.20
28448;BME280;15675;52.870;-1.416;2023-06-14T07:57:29;101369.25;;;19.65;81.33
28448;BME280;15675;52.870;-1.416;2023-06-14T07:59:55;101370.03;;;19.31;80.58
28448;BME280;15675;52.870;-1.416;2023-06-14T08:02:20;101362.66;;;19.08;80.88
28448;BME280;15675;52.870;-1.416;2023-06-14T08:04:46;101366.19;;;19.07;83.84
28448;BME280;15675;52.870;-1.416;2023-06-14T08:07:14;101364.84;;;18.86;81.73
28448;BME280;15675;52.870;-1.416;2023-06-14T08:09:39;101379.72;;;19.69;85.81
28448;BME280;15675;52.870;-1.416;2023-06-14T08:12:06;101376.50;;;19.56;84.52
28448;BME280;15675;52.870;-1.416;2023-06-14T08:14:39;101382.31;;;19.70;82.03
28448;BME280;15675;52.870;-1.416;2023-06-14T08:17:05;101383.94;;;19.76;81.28
28448;BME280;15675;52.870;-1.416;2023-06-14T08:19:30;101375.34;;;19.67;81.28
28448;BME280;15675;52.870;-1.416;2023-06-14T08:21:56;101372.63;;;19.71;79.92
28448;BME280;15675;52.870;-1.416;2023-06-14T08:24:22;101377.38;;;19.94;79.82
28448;BME280;15675;52.870;-1.416;2023-06-14T08:26:55;101373.88;;;19.93;80.72
28448;BME280;15675;52.870;-1.416;2023-06-14T08:29:22;101375.34;;;20.04;81.32
28448;BME280;15675;52.870;-1.416;2023-06-14T08:31:47;101376.94;;;20.11;80.33
28448;BME280;15675;52.870;-1.416;2023-06-14T08:34:13;101373.66;;;20.35;78.32
28448;BME280;15675;52.870;-1.416;2023-06-14T08:36:38;101384.56;;;20.22;78.03
28448;BME280;15675;52.870;-1.416;2023-06-14T08:39:04;101369.69;;;20.19;78.41
28448;BME280;15675;52.870;-1.416;2023-06-14T08:41:29;101378.50;;;20.52;78.46
28448;BME280;15675;52.870;-1.416;2023-06-14T08:43:56;101365.25;;;20.54;75.65
28448;BME280;15675;52.870;-1.416;2023-06-14T08:46:25;101361.72;;;20.55;76.03
28448;BME280;15675;52.870;-1.416;2023-06-14T08:48:55;101364.38;;;20.55;76.23
28448;BME280;15675;52.870;-1.416;2023-06-14T08:51:22;101367.38;;;20.41;74.22
28448;BME280;15675;52.870;-1.416;2023-06-14T08:53:54;101370.59;;;20.84;75.02
28448;BME280;15675;52.870;-1.416;2023-06-14T08:56:26;101367.56;;;21.26;77.18
28448;BME280;15675;52.870;-1.416;2023-06-14T08:58:53;101363.34;;;20.92;73.50
28448;BME280;15675;52.870;-1.416;2023-06-14T09:01:23;101362.28;;;21.26;75.55
28448;BME280;15675;52.870;-1.416;2023-06-14T09:03:50;101354.03;;;21.09;73.71
28448;BME280;15675;52.870;-1.416;2023-06-14T09:06:16;101358.06;;;21.22;72.64
28448;BME280;15675;52.870;-1.416;2023-06-14T09:08:45;101361.81;;;21.42;71.85
28448;BME280;15675;52.870;-1.416;2023-06-14T09:11:12;101355.91;;;21.33;73.41
28448;BME280;15675;52.870;-1.416;2023-06-14T09:13:41;101352.22;;;21.39;71.06
28448;BME280;15675;52.870;-1.416;2023-06-14T09:16:08;101362.78;;;21.11;71.86
28448;BME280;15675;52.870;-1.416;2023-06-14T09:18:38;101355.78;;;21.10;69.68
28448;BME280;15675;52.870;-1.416;2023-06-14T09:21:07;101358.44;;;21.66;69.91
28448;BME280;15675;52.870;-1.416;2023-06-14T09:23:36;101368.06;;;21.39;70.17
28448;BME280;15675;52.870;-1.416;2023-06-14T09:26:12;101358.06;;;21.49;71.14
28448;BME280;15675;52.870;-1.416;2023-06-14T09:28:46;101366.66;;;21.57;69.39
28448;BME280;15675;52.870;-1.416;2023-06-14T09:31:13;101368.84;;;21.43;70.03
28448;BME280;15675;52.870;-1.416;2023-06-14T09:33:47;101369.78;;;21.40;72.88
28448;BME280;15675;52.870;-1.416;2023-06-14T09:36:24;101376.59;;;21.47;68.75
28448;BME280;15675;52.870;-1.416;2023-06-14T09:41:35;101361.22;;;21.62;70.62
28448;BME280;15675;52.870;-1.416;2023-06-14T09:44:03;101365.00;;;21.81;68.88
28448;BME280;15675;52.870;-1.416;2023-06-14T09:46:29;101367.78;;;22.03;68.99
28448;BME280;15675;52.870;-1.416;2023-06-14T09:48:56;101375.31;;;21.62;68.14
28448;BME280;15675;52.870;-1.416;2023-06-14T09:51:22;101372.16;;;21.78;67.80
28448;BME280;15675;52.870;-1.416;2023-06-14T09:53:49;101369.94;;;22.17;68.98
28448;BME280;15675;52.870;-1.416;2023-06-14T09:56:36;101356.13;;;22.09;66.82
28448;BME280;15675;52.870;-1.416;2023-06-14T09:59:04;101357.22;;;22.03;65.92
28448;BME280;15675;52.870;-1.416;2023-06-14T10:01:31;101358.09;;;22.29;67.08
28448;BME280;15675;52.870;-1.416;2023-06-14T10:04:04;101346.47;;;22.08;63.30
28448;BME280;15675;52.870;-1.416;2023-06-14T10:06:31;101349.56;;;22.21;63.26
28448;BME280;15675;52.870;-1.416;2023-06-14T10:08:58;101354.03;;;22.69;63.85
28448;BME280;15675;52.870;-1.416;2023-06-14T10:11:27;101356.56;;;22.22;64.13
28448;BME280;15675;52.870;-1.416;2023-06-14T10:13:54;101354.53;;;22.55;63.39
28448;BME280;15675;52.870;-1.416;2023-06-14T10:19:28;101346.44;;;22.84;62.10
28448;BME280;15675;52.870;-1.416;2023-06-14T10:22:07;101343.84;;;22.82;61.98
28448;BME280;15675;52.870;-1.416;2023-06-14T10:24:40;101343.06;;;23.02;61.60
28448;BME280;15675;52.870;-1.416;2023-06-14T10:27:07;101337.66;;;23.29;61.54
28448;BME280;15675;52.870;-1.416;2023-06-14T10:32:24;101345.09;;;22.96;58.36
28448;BME280;15675;52.870;-1.416;2023-06-14T10:34:55;101349.16;;;23.28;59.22
28448;BME280;15675;52.870;-1.416;2023-06-14T10:37:21;101344.59;;;23.54;60.13
28448;BME280;15675;52.870;-1.416;2023-06-14T10:39:47;101345.59;;;23.29;58.00
28448;BME280;15675;52.870;-1.416;2023-06-14T10:42:13;101351.94;;;23.91;59.92
28448;BME280;15675;52.870;-1.416;2023-06-14T10:47:07;101344.75;;;23.71;58.15
28448;BME280;15675;52.870;-1.416;2023-06-14T10:49:44;101351.06;;;23.47;59.30
28448;BME280;15675;52.870;-1.416;2023-06-14T10:52:11;101345.88;;;23.66;56.37
28448;BME280;15675;52.870;-1.416;2023-06-14T10:55:14;101344.88;;;23.68;55.44
28448;BME280;15675;52.870;-1.416;2023-06-14T10:57:49;101345.56;;;23.73;55.80
28448;BME280;15675;52.870;-1.416;2023-06-14T11:00:18;101341.16;;;23.52;54.77
28448;BME280;15675;52.870;-1.416;2023-06-14T11:05:56;101334.50;;;23.64;55.72
28448;BME280;15675;52.870;-1.416;2023-06-14T11:11:16;101328.59;;;24.00;55.82
28448;BME280;15675;52.870;-1.416;2023-06-14T11:13:44;101327.50;;;23.83;54.84
28448;BME280;15675;52.870;-1.416;2023-06-14T11:16:15;101318.53;;;23.65;52.39
28448;BME280;15675;52.870;-1.416;2023-06-14T11:18:41;101327.56;;;23.82;52.18
28448;BME280;15675;52.870;-1.416;2023-06-14T11:21:07;101309.03;;;24.02;51.36
28448;BME280;15675;52.870;-1.416;2023-06-14T11:23:34;101322.63;;;23.72;53.41
28448;BME280;15675;52.870;-1.416;2023-06-14T11:26:00;101318.50;;;24.08;54.01
28448;BME280;15675;52.870;-1.416;2023-06-14T11:28:46;101315.97;;;24.46;52.62
28448;BME280;15675;52.870;-1.416;2023-06-14T11:31:12;101305.50;;;24.22;51.17
28448;BME280;15675;52.870;-1.416;2023-06-14T11:33:37;101309.81;;;24.25;51.54
28448;BME280;15675;52.870;-1.416;2023-06-14T11:36:03;101316.00;;;24.05;51.35
28448;BME280;15675;52.870;-1.416;2023-06-14T11:38:30;101323.06;;;24.25;53.52
28448;BME280;15675;52.870;-1.416;2023-06-14T11:40:59;101319.00;;;24.37;54.57
28448;BME280;15675;52.870;-1.416;2023-06-14T11:43:25;101317.00;;;24.23;52.53
28448;BME280;15675;52.870;-1.416;2023-06-14T11:45:52;101316.50;;;24.34;53.17
28448;BME280;15675;52.870;-1.416;2023-06-14T11:48:18;101309.72;;;24.07;52.31
28448;BME280;15675;52.870;-1.416;2023-06-14T11:50:43;101317.47;;;24.12;52.31
28448;BME280;15675;52.870;-1.416;2023-06-14T11:53:09;101316.03;;;24.24;52.77
28448;BME280;15675;52.870;-1.416;2023-06-14T11:55:39;101311.69;;;24.62;52.31
28448;BME280;15675;52.870;-1.416;2023-06-14T11:58:06;101314.72;;;24.74;51.11
28448;BME280;15675;52.870;-1.416;2023-06-14T12:00:32;101305.94;;;24.53;48.77
28448;BME280;15675;52.870;-1.416;2023-06-14T12:02:58;101305.78;;;24.56;50.13
28448;BME280;15675;52.870;-1.416;2023-06-14T12:05:24;101303.91;;;24.58;50.14
28448;BME280;15675;52.870;-1.416;2023-06-14T12:07:58;101306.03;;;24.89;50.65
28448;BME280;15675;52.870;-1.416;2023-06-14T12:10:25;101307.25;;;24.82;49.42
28448;BME280;15675;52.870;-1.416;2023-06-14T12:12:51;101301.38;;;24.75;47.01
28448;BME280;15675;52.870;-1.416;2023-06-14T12:15:16;101309.25;;;24.77;49.15
28448;BME280;15675;52.870;-1.416;2023-06-14T12:17:42;101304.44;;;24.85;47.98
28448;BME280;15675;52.870;-1.416;2023-06-14T12:20:12;101309.06;;;24.81;49.38
28448;BME280;15675;52.870;-1.416;2023-06-14T12:22:58;101306.19;;;24.86;48.75
28448;BME280;15675;52.870;-1.416;2023-06-14T12:25:26;101303.22;;;24.92;49.09
28448;BME280;15675;52.870;-1.416;2023-06-14T12:27:54;101307.25;;;24.82;47.87
28448;BME280;15675;52.870;-1.416;2023-06-14T12:30:19;101305.72;;;24.95;47.51
28448;BME280;15675;52.870;-1.416;2023-06-14T12:32:45;101307.97;;;25.05;46.83
28448;BME280;15675;52.870;-1.416;2023-06-14T12:35:11;101312.59;;;25.19;47.49
28448;BME280;15675;52.870;-1.416;2023-06-14T12:37:36;101314.13;;;25.05;45.71
28448;BME280;15675;52.870;-1.416;2023-06-14T12:40:03;101308.19;;;24.62;45.62
28448;BME280;15675;52.870;-1.416;2023-06-14T12:42:33;101307.38;;;25.17;45.74
28448;BME280;15675;52.870;-1.416;2023-06-14T12:44:59;101318.25;;;25.66;46.98
28448;BME280;15675;52.870;-1.416;2023-06-14T12:47:25;101309.72;;;25.77;47.15
28448;BME280;15675;52.870;-1.416;2023-06-14T12:49:50;101305.81;;;25.30;45.29
28448;BME280;15675;52.870;-1.416;2023-06-14T12:52:16;101310.22;;;25.12;43.94
28448;BME280;15675;52.870;-1.416;2023-06-14T12:54:42;101309.41;;;25.66;45.77
28448;BME280;15675;52.870;-1.416;2023-06-14T12:57:07;101307.84;;;25.25;44.59
28448;BME280;15675;52.870;-1.416;2023-06-14T12:59:33;101308.59;;;24.91;45.42
28448;BME280;15675;52.870;-1.416;2023-06-14T13:02:19;101313.03;;;25.28;45.80
28448;BME280;15675;52.870;-1.416;2023-06-14T13:04:47;101307.91;;;24.87;44.95